• Join FlightAware (Why Join?)
  • Login
  • US Flag 
08:37AM EDT


 

Airport Tracker/Info


-or-


 

Live Flight TrackerFlight Track Log ✈ OPT332 ✈ 17-Nov-2013 ✈ KMKC - KEUL

Flight Track Log - Related Links

Times and Time Zones

All times are in EST time to prevent confusion due to time zone crossing. See the OPT332 flight status page for this flight to view local times or setup timezone preferences in your user account.

Time Position Orientation Groundspeed Altitude Reporting Facility
EST Latitude Longitude Course Direction KTS MPH feet Rate Location/Type
10:56AM 39.1500 -94.6333 311° West 201 231 3,100  Level Kansas City TRACON
10:56AM 39.1578 -94.6808 282° West 204 235 4,200 2,820 Climbing Kansas City Center
10:57AM 39.2081 -94.7092 336° Northwest 219 252 7,800 3,480 Climbing Kansas City Center
10:58AM 39.2747 -94.7347 343° North 222 255 11,400 3,060 Climbing Kansas City Center
10:59AM 39.3367 -94.7533 347° North 233 268 14,100 2,580 Climbing Kansas City Center
11:00AM 39.4167 -94.7739 349° North 260 299 16,800 2,580 Climbing Kansas City Center
11:01AM 39.4906 -94.7939 348° North 279 321 19,400 2,820 Climbing Kansas City Center
11:03AM 39.5808 -94.8192 348° North 294 338 22,600 2,580 Climbing Kansas City Center
11:04AM 39.6628 -94.8417 348° North 314 361 24,800 1,980 Climbing Kansas City Center
11:05AM 39.7442 -94.8656 347° North 314 361 26,700 1,980 Climbing Kansas City Center
11:06AM 39.8436 -94.8931 348° North 327 376 28,900 1,800 Climbing Kansas City Center
11:07AM 39.9300 -94.9181 347° North 333 383 30,400 1,380 Climbing Kansas City Center
11:08AM 39.9983 -94.9956 319° Northwest 289 333 31,800 1,440 Climbing Kansas City Center
11:09AM 40.0419 -95.0764 305° West 286 329 33,400 1,740 Climbing Kansas City Center
11:10AM 40.0894 -95.1636 305° West 267 307 35,400 1,320 Climbing Kansas City Center
11:11AM 40.1294 -95.2372 305° West 261 300 36,200 780 Climbing Kansas City Center
11:12AM 40.1608 -95.2961 305° West 268 308 36,900 1,080 Climbing Minneapolis Center
11:13AM 40.2053 -95.3778 305° West 273 314 38,200 1,020 Climbing Minneapolis Center
11:14AM 40.2561 -95.4756 304° West 271 312 39,000 840 Climbing Minneapolis Center
11:15AM 40.3008 -95.5572 306° West 274 315 40,000 1,140 Climbing Minneapolis Center
11:16AM 40.3444 -95.6378 305° West 273 314 41,400 780 Climbing Minneapolis Center
11:17AM 40.3861 -95.7178 304° West 267 307 41,700 300 Climbing Minneapolis Center
11:18AM 40.4100 -95.8125 288° West 273 314 42,100 360 Climbing Minneapolis Center
11:19AM 40.4261 -95.9117 282° West 277 319 42,500 360 Climbing Minneapolis Center
11:20AM 40.4439 -96.0108 283° West 278 320 42,900 240 Climbing Minneapolis Center
11:21AM 40.4606 -96.1147 282° West 281 323 43,000  Climbing Minneapolis Center
11:22AM 40.4789 -96.2242 282° West 290 334 43,000 240 Level Minneapolis Center
11:23AM 40.5014 -96.3631 282° West 305 351 43,500 480 Climbing Minneapolis Center
11:24AM 40.5206 -96.4783 282° West 314 361 44,000 480 Climbing Minneapolis Center
11:25AM 40.5389 -96.5931 282° West 318 366 44,500 480 Climbing Minneapolis Center
11:26AM 40.5572 -96.7056 282° West 317 365 45,000 240 Climbing Minneapolis Center
11:27AM 40.5750 -96.8172 282° West 313 360 45,000  Level Minneapolis Center
11:28AM 40.5936 -96.9333 282° West 320 368 45,000  Level Minneapolis Center
11:29AM 40.6119 -97.0531 281° West 329 379 45,000  Level Minneapolis Center
11:30AM 40.6308 -97.1717 282° West 331 381 45,000  Level Minneapolis Center
11:31AM 40.6494 -97.2911 282° West 332 382 45,000  Level Minneapolis Center
11:32AM 40.6708 -97.4336 281° West 334 384 45,000  Level Minneapolis Center
11:33AM 40.6889 -97.5522 281° West 331 381 45,000  Level Minneapolis Center
11:34AM 40.7067 -97.6708 281° West 331 381 45,000  Level Minneapolis Center
11:35AM 40.7250 -97.7889 282° West 329 379 45,000  Level Minneapolis Center
11:36AM 40.7422 -97.9069 281° West 328 377 45,000  Level Minneapolis Center
11:37AM 40.7603 -98.0256 281° West 329 379 45,000  Level Minneapolis Center
11:38AM 40.7772 -98.1431 281° West 328 377 45,000  Level Minneapolis Center
11:39AM 40.7950 -98.2622 281° West 328 377 45,000  Level Minneapolis Center
11:40AM 40.8119 -98.3803 281° West 328 377 45,000  Level Minneapolis Center
11:41AM 40.8297 -98.4989 281° West 328 377 45,000  Level Minneapolis Center
11:42AM 40.8489 -98.6386 280° West 326 375 45,000  Level Minneapolis Center
11:43AM 40.8661 -98.7572 281° West 327 376 45,000  Level Minneapolis Center
11:44AM 40.8822 -98.8739 280° West 325 374 45,000  Level Minneapolis Center
11:50AM 40.9811 -99.5961 280° West 325 374 45,000  Level FlightAware ADS-B
11:51AM 40.9823 -99.6055 280° West 325 374 45,000  Level FlightAware ADS-B
11:52AM 41.0050 -99.7770 280° West 326 375 45,000  Level FlightAware ADS-B
11:53AM 41.0065 -99.7888 280° West 326 375 45,000  Level FlightAware ADS-B
11:55AM 41.0498 -100.1220 280° West 325 374 45,000  Level FlightAware ADS-B
11:56AM 41.0527 -100.1450 279° West 324 373 45,000  Level FlightAware ADS-B
11:57AM 41.0775 -100.3183 279° West 324 373 45,000  Level Minneapolis Center
11:58AM 41.0931 -100.4372 280° West 325 374 45,000  Level Minneapolis Center
11:59AM 41.1061 -100.5572 278° West 327 376 45,000  Level Minneapolis Center
12:00PM 41.1256 -100.7275 279° West 333 383 45,000  Level Denver Center
12:01PM 41.1419 -100.8622 279° West 334 384 45,000  Level Denver Center
12:02PM 41.1564 -100.9772 280° West 333 383 45,000  Level Denver Center
12:03PM 41.1692 -101.0928 278° West 333 383 45,000  Level Denver Center
12:04PM 41.1864 -101.2283 280° West 335 386 45,000  Level Denver Center
12:05PM 41.2011 -101.3467 279° West 339 390 45,000  Level Denver Center
12:06PM 41.2156 -101.4864 278° West 342 394 45,000  Level Denver Center
12:07PM 41.2306 -101.6058 280° West 343 395 45,000  Level Denver Center
12:08PM 41.2469 -101.7469 279° West 346 398 45,000  Level Denver Center
12:09PM 41.2608 -101.8653 279° West 341 392 45,000  Level Denver Center
12:10PM 41.2744 -102.0053 277° West 342 394 45,000  Level Denver Center
12:11PM 41.2875 -102.1219 279° West 337 388 45,000  Level Denver Center
12:12PM 41.3008 -102.2411 279° West 340 391 45,000  Level Denver Center
12:13PM 41.3144 -102.3767 278° West 334 384 45,000  Level Denver Center
12:14PM 41.3283 -102.4967 279° West 339 390 45,000  Level Denver Center
12:16PM 41.3425 -102.6342 278° West 340 391 45,000  Level Denver Center
12:17PM 41.3547 -102.7528 278° West 339 390 45,000  Level Denver Center
12:18PM 41.3717 -102.9117 278° West 340 391 45,000  Level Denver Center
12:19PM 41.3842 -103.0328 278° West 345 397 45,000  Level Denver Center
12:25PM 41.4598 -103.7945 278° West 347 399 45,000  Level FlightAware ADS-B (KBJC)
12:28PM 41.4955 -104.1773 277° West 341 392 45,000  Level FlightAware ADS-B (KBJC)
12:29PM 41.5036 -104.2897 277° West 341 392 45,000  Level Salt Lake Center
12:30PM 41.5147 -104.4089 277° West 340 391 45,000  Level Salt Lake Center
12:31PM 41.5269 -104.5461 277° West 337 388 45,000  Level Salt Lake Center
12:32PM 41.5372 -104.6653 277° West 336 387 45,000  Level Salt Lake Center
12:33PM 41.5497 -104.8064 277° West 341 392 45,000  Level Salt Lake Center
12:34PM 41.5600 -104.9294 276° West 347 399 45,000  Level Salt Lake Center
12:35PM 41.5725 -105.0742 277° West 350 403 45,000  Level Salt Lake Center
12:35PM 41.5781 -105.1367 277° West 352 405 45,000  Level Denver Center
12:36PM 41.5886 -105.2603 277° West 352 405 45,000  Level Denver Center
12:37PM 41.6008 -105.4044 277° West 351 404 45,000  Level Denver Center
12:38PM 41.6103 -105.5297 276° West 353 406 45,000  Level Denver Center
12:39PM 41.6194 -105.6533 276° West 352 405 45,000  Level Denver Center
12:40PM 41.6317 -105.7981 276° West 350 403 45,000  Level Denver Center
12:41PM 41.6411 -105.9200 276° West 348 400 45,000  Level Denver Center
12:42PM 41.6506 -106.0603 275° West 342 394 45,000  Level Denver Center
12:44PM 41.6600 -106.1836 276° West 348 400 45,000  Level Denver Center
12:45PM 41.6708 -106.3306 276° West 355 409 45,000  Level Denver Center
12:46PM 41.6806 -106.4583 276° West 360 414 45,000  Level Denver Center
12:47PM 41.6894 -106.5906 275° West 360 414 45,000  Level Denver Center
12:48PM 41.7003 -106.7419 276° West 367 422 45,000  Level Denver Center
12:49PM 41.7094 -106.8700 276° West 363 418 45,000  Level Denver Center
12:50PM 41.7197 -107.0203 275° West 363 418 45,000  Level Denver Center
12:51PM 41.7278 -107.1475 275° West 360 414 45,000  Level Denver Center
12:52PM 41.7375 -107.2981 275° West 362 417 45,000  Level Denver Center
12:53PM 41.7456 -107.4264 275° West 363 418 45,000  Level Denver Center
12:54PM 41.7558 -107.5772 275° West 363 418 45,000  Level Denver Center
12:55PM 41.7861 -107.7011 288° West 368 423 45,000  Level Denver Center
12:56PM 41.8222 -107.8456 289° West 368 423 45,000  Level Denver Center
12:57PM 41.8533 -107.9689 289° West 367 422 45,000  Level Denver Center
12:58PM 41.8894 -108.1117 289° West 364 419 45,000  Level Denver Center
12:59PM 41.9197 -108.2344 288° West 363 418 45,000  Level Denver Center
01:00PM 41.9556 -108.3778 289° West 364 419 45,000  Level Denver Center
01:01PM 41.9953 -108.5386 288° West 355 409 45,000  Level Salt Lake Center
01:02PM 42.0283 -108.6764 288° West 350 403 45,000  Level Salt Lake Center
01:03PM 42.0578 -108.7939 289° West 348 400 45,000  Level Salt Lake Center
01:04PM 42.0850 -108.9111 287° West 344 396 45,000  Level Salt Lake Center
01:06PM 42.1181 -109.0500 288° West 349 402 45,000  Level Salt Lake Center
01:07PM 42.1467 -109.1697 288° West 352 405 45,000  Level Salt Lake Center
01:08PM 42.1800 -109.3108 288° West 354 407 45,000  Level Salt Lake Center
01:09PM 42.2078 -109.4308 287° West 353 406 45,000  Level Salt Lake Center
01:10PM 42.2414 -109.5728 288° West 356 410 45,000  Level Salt Lake Center
01:11PM 42.2697 -109.6942 288° West 356 410 45,000  Level Salt Lake Center
01:12PM 42.2975 -109.8150 287° West 354 407 45,000  Level Salt Lake Center
01:13PM 42.3300 -109.9553 287° West 352 405 45,000  Level Salt Lake Center
01:14PM 42.3586 -110.0778 288° West 356 410 45,000  Level Salt Lake Center
01:15PM 42.3906 -110.2217 287° West 359 413 45,000  Level Salt Lake Center
01:16PM 42.4192 -110.3444 288° West 359 413 45,000  Level Salt Lake Center
01:17PM 42.4458 -110.4631 287° West 348 400 45,000  Level Salt Lake Center
01:18PM 42.4769 -110.5983 287° West 339 390 45,000  Level Salt Lake Center
01:19PM 42.5025 -110.7119 287° West 332 382 45,000  Level Salt Lake Center
01:25PM 42.6534 -111.4030 287° West 331 381 45,000  Level FlightAware ADS-B
01:25PM 42.6718 -111.4880 286° West 332 382 45,000  Level FlightAware ADS-B
01:26PM 42.6990 -111.6150 286° West 336 387 45,000  Level FlightAware ADS-B
01:27PM 42.7124 -111.6780 286° West 338 389 45,000  Level FlightAware ADS-B
01:27PM 42.7260 -111.7430 286° West 339 390 45,000  Level FlightAware ADS-B
01:28PM 42.7410 -111.8140 286° West 341 392 45,000  Level FlightAware ADS-B
01:28PM 42.7542 -111.8760 286° West 344 396 45,000  Level FlightAware ADS-B
01:29PM 42.7675 -111.9400 286° West 344 396 45,000  Level FlightAware ADS-B
01:29PM 42.7807 -112.0030 286° West 344 396 45,000  Level FlightAware ADS-B
01:30PM 42.7956 -112.0740 286° West 343 395 45,000  Level FlightAware ADS-B
01:31PM 42.8109 -112.1480 286° West 344 396 45,000  Level FlightAware ADS-B
01:31PM 42.8342 -112.2600 286° West 344 396 45,000  Level FlightAware ADS-B
01:32PM 42.8391 -112.2839 286° West 343 395 45,000  Level FlightAware ADS-B (KBTF)
01:33PM 42.8718 -112.4433 286° West 343 395 45,000  Level FlightAware ADS-B (KBTF)
01:34PM 42.8883 -112.5243 286° West 343 395 45,000  Level FlightAware ADS-B (KBTF)
01:34PM 42.9004 -112.5830 286° West 345 397 45,000  Level FlightAware ADS-B
01:34PM 42.9045 -112.6034 285° West 343 395 45,000  Level FlightAware ADS-B (KBTF)
01:35PM 42.9197 -112.6789 285° West 342 394 45,000  Level FlightAware ADS-B (KBTF)
01:35PM 42.9347 -112.7531 285° West 343 395 45,000  Level FlightAware ADS-B (KBTF)
01:37PM 42.9739 -112.9487 285° West 345 397 45,000  Level FlightAware ADS-B (KBTF)
01:38PM 42.9905 -113.0319 285° West 347 399 45,000  Level FlightAware ADS-B (KBTF)
01:38PM 42.9989 -113.0746 285° West 347 399 45,000  Level FlightAware ADS-B (KBTF)
01:39PM 43.0128 -113.1450 285° West 351 404 45,000  Level FlightAware ADS-B
01:39PM 43.0267 -113.2159 285° West 349 402 45,000  Level FlightAware ADS-B (KBTF)
01:40PM 43.0390 -113.2782 285° West 351 404 45,000  Level FlightAware ADS-B
01:40PM 43.0519 -113.3440 285° West 350 403 45,000  Level FlightAware ADS-B
01:40PM 43.0570 -113.3698 285° West 349 402 45,000  Level FlightAware ADS-B
01:41PM 43.0680 -113.4260 285° West 350 403 45,000  Level FlightAware ADS-B
01:41PM 43.0820 -113.4980 285° West 351 404 45,000  Level FlightAware ADS-B
01:42PM 43.0999 -113.5910 285° West 352 405 45,000  Level FlightAware ADS-B
01:43PM 43.1137 -113.6620 285° West 352 405 45,000  Level FlightAware ADS-B
01:43PM 43.1167 -113.6780 284° West 354 407 45,000 -540 Level FlightAware ADS-B
01:43PM 43.1340 -113.7680 285° West 363 418 44,600 -1,020 Descending FlightAware ADS-B
01:44PM 43.1422 -113.8113 285° West 359 413 43,900 -1,860 Descending FlightAware ADS-B
01:45PM 43.1689 -113.9518 285° West 347 399 42,000 -1,920 Descending FlightAware ADS-B
01:45PM 43.1858 -114.0410 285° West 341 392 40,700 -1,860 Descending FlightAware ADS-B
01:47PM 43.2179 -114.2123 284° West 329 379 38,200 -1,800 Descending FlightAware ADS-B
01:48PM 43.2350 -114.3041 284° West 336 387 36,900 -1,800 Descending FlightAware ADS-B (KBTF)
01:49PM 43.2556 -114.4197 284° West 358 412 35,100 -1,860 Descending Salt Lake Center
01:50PM 43.2814 -114.5608 284° West 379 436 33,100 -2,040 Descending Salt Lake Center
01:51PM 43.3078 -114.7033 284° West 385 443 31,000 -2,280 Descending Salt Lake Center
01:52PM 43.3394 -114.8747 284° West 386 444 28,500 -2,280 Descending Salt Lake Center
01:53PM 43.3647 -115.0192 284° West 389 448 26,400 -2,040 Descending Salt Lake Center
01:54PM 43.3914 -115.1669 284° West 397 457 24,400 -2,160 Descending Salt Lake Center
01:54PM 43.4047 -115.2403 284° West 402 463 23,200 -2,280 Descending Salt Lake Center
01:55PM 43.4147 -115.2986 283° West 398 458 22,400 -1,680 Descending Salt Lake Center
01:55PM 43.4169 -115.3133 282° West 395 455 22,300 -1,920 Descending Salt Lake Center
01:56PM 43.4397 -115.4406 284° West 358 412 20,500 -1,860 Descending Salt Lake Center
01:56PM 43.4406 -115.4506 277° West 374 430 20,400 -2,100 Descending Salt Lake Center
01:57PM 43.4639 -115.5797 284° West 358 412 18,400 -2,340 Descending Salt Lake Center
01:57PM 43.4658 -115.5994 278° West 357 411 18,000 -1,680 Descending Salt Lake Center
01:58PM 43.4828 -115.7031 283° West 346 398 16,700 -1,800 Descending Salt Lake Center
01:58PM 43.4881 -115.7328 284° West 346 398 16,200 -1,920 Descending Salt Lake Center
01:59PM 43.5050 -115.8342 283° West 336 387 14,800 -1,800 Descending Salt Lake Center
01:59PM 43.4972 -115.8647 251° West 343 395 14,400 -1,500 Descending Salt Lake Center
02:00PM 43.4658 -115.9842 250° West 346 398 12,900 -1,560 Descending Salt Lake Center
02:01PM 43.4408 -116.0842 251° West 342 394 11,600 -1,560 Descending Salt Lake Center
02:01PM 43.4325 -116.1119 248° West 342 394 11,300 -1,440 Descending Salt Lake Center
02:02PM 43.4536 -116.1919 290° West 272 313 10,200 -1,500 Descending Salt Lake Center
02:02PM 43.4625 -116.2158 297° West 282 325 9,800 -1,380 Descending Salt Lake Center
02:03PM 43.4864 -116.2806 297° West 246 283 8,800 -1,500 Descending Salt Lake Center
02:03PM 43.4958 -116.3067 297° West 258 297 8,300 -1,620 Descending Salt Lake Center
02:04PM 43.5192 -116.3692 297° West 253 291 7,200 -1,560 Descending Salt Lake Center
02:04PM 43.5269 -116.3967 291° West 251 289 6,700 -1,500 Descending Salt Lake Center
02:05PM 43.5517 -116.4578 299° West 263 303 5,700 -1,200 Descending Salt Lake Center
02:05PM 43.5572 -116.4733 296° West 260 299 5,500 -600 Descending Salt Lake Center
02:07PM 43.6283 -116.6226 303° West  Level FlightAware Approximate
02:14PM 43.6333 -116.6333 300° West  Level FlightAware Approximate
02:15PM 43.6419 -116.6358 300° West  Level Estimated
02:16PM 43.6419 -116.6358 300° West  Level Estimated